Astoria — C6SI2 — position and weather

sailwx.info

Track history (hours):
 
Tides and Currents Weather Stations Pressure Air Temp Water Temp Dewpoint Dewpoint Depression Visibility Wind Speed Wind Dir Waves Ship Positions

Astoria

Operator: Passat Ship Management Ltd

Last reported at 2012-Mar-09 07:32 UTC. Time now 2019-Sep-17 09:06 UTC.
Position N 66°27' E 012°59'.
Warning: this ship's position is years out of date!

Length 165 m; draft 6.3 m.

Type: Ship. MMSI: 311348000.

Date/timePositionNaut miles runAvg speedWind from/ knotsBaromVisibWave heightAir tempDewpointWater temp
2012-Mar-09 07:32N 66°27' E 012°59'2512.2
2012-Mar-09 05:28N 66°51' E 013°20'1010.6
2012-Mar-09 04:33N 66°58' E 013°37'1313.1
2012-Mar-09 03:33N 67°07' E 014°00'1313.5
2012-Mar-09 02:33N 67°19' E 014°17'1211.6
2012-Mar-09 01:33N 67°31' E 014°22'1312.8
2012-Mar-09 00:34N 67°43' E 014°13'  
2012-Mar-03 19:34N 67°46' E 014°19'1514.9
2012-Mar-03 18:33N 67°32' E 014°22'1414.3
2012-Mar-03 17:34N 67°18' E 014°15'1616.3
2012-Mar-03 16:33N 67°04' E 013°53'4514.9
2012-Mar-03 13:33N 66°25' E 012°59'1816.3
2012-Mar-03 12:26N 66°07' E 012°46'277 8.9
2012-Mar-02 05:30N 62°30' E 006°09'4114.0
2012-Mar-02 02:33N 62°09' E 004°54'1615.5
2012-Mar-02 01:33N 61°54' E 004°41'1515.4
2012-Mar-02 00:33N 61°40' E 004°31'1615.4
2012-Mar-01 23:33N 61°24' E 004°26'6613.0
2012-Mar-01 18:31N 60°24' E 005°19'0 0.0
2012-Mar-01 17:25N 60°24' E 005°19'0 0.0
2012-Mar-01 16:31N 60°24' E 005°19'0 0.0
2012-Mar-01 15:30N 60°24' E 005°19'0 0.0
2012-Mar-01 14:33N 60°24' E 005°19'0 0.0
2012-Mar-01 13:23N 60°24' E 005°19'0 0.0
2012-Mar-01 11:34N 60°24' E 005°19'0 0.0
2012-Mar-01 10:27N 60°24' E 005°19'0 0.0
2012-Mar-01 09:33N 60°24' E 005°19'0 0.0
2012-Mar-01 08:24N 60°24' E 005°19'0 0.1
2012-Mar-01 06:33N 60°24' E 005°19'39612.0
2012-Feb-28 21:31N 53°53' E 003°27'  
Track history (hours):
 
Tides and Currents Weather Stations Pressure Air Temp Water Temp Dewpoint Dewpoint Depression Visibility Wind Speed Wind Dir Waves Ship Positions

Astoria

Operator: Passat Ship Management Ltd

Last reported at 2012-Mar-09 07:32 UTC. Time now 2019-Sep-17 09:06 UTC.
Position N 66°27' E 012°59'.
Warning: this ship's position is years out of date!

Length 165 m; draft 6.3 m.

Type: Ship. MMSI: 311348000.

Date/timePositionNaut miles runAvg speedWind from/ knotsBaromVisibWave heightAir tempDewpointWater temp
2012-Mar-09 07:32N 66°27' E 012°59'2512.2
2012-Mar-09 05:28N 66°51' E 013°20'1010.6
2012-Mar-09 04:33N 66°58' E 013°37'1313.1
2012-Mar-09 03:33N 67°07' E 014°00'1313.5
2012-Mar-09 02:33N 67°19' E 014°17'1211.6
2012-Mar-09 01:33N 67°31' E 014°22'1312.8
2012-Mar-09 00:34N 67°43' E 014°13'  
2012-Mar-03 19:34N 67°46' E 014°19'1514.9
2012-Mar-03 18:33N 67°32' E 014°22'1414.3
2012-Mar-03 17:34N 67°18' E 014°15'1616.3
2012-Mar-03 16:33N 67°04' E 013°53'4514.9
2012-Mar-03 13:33N 66°25' E 012°59'1816.3
2012-Mar-03 12:26N 66°07' E 012°46'277 8.9
2012-Mar-02 05:30N 62°30' E 006°09'4114.0
2012-Mar-02 02:33N 62°09' E 004°54'1615.5
2012-Mar-02 01:33N 61°54' E 004°41'1515.4
2012-Mar-02 00:33N 61°40' E 004°31'1615.4
2012-Mar-01 23:33N 61°24' E 004°26'6613.0
2012-Mar-01 18:31N 60°24' E 005°19'0 0.0
2012-Mar-01 17:25N 60°24' E 005°19'0 0.0
2012-Mar-01 16:31N 60°24' E 005°19'0 0.0
2012-Mar-01 15:30N 60°24' E 005°19'0 0.0
2012-Mar-01 14:33N 60°24' E 005°19'0 0.0
2012-Mar-01 13:23N 60°24' E 005°19'0 0.0
2012-Mar-01 11:34N 60°24' E 005°19'0 0.0
2012-Mar-01 10:27N 60°24' E 005°19'0 0.0
2012-Mar-01 09:33N 60°24' E 005°19'0 0.0
2012-Mar-01 08:24N 60°24' E 005°19'0 0.1
2012-Mar-01 06:33N 60°24' E 005°19'39612.0
2012-Feb-28 21:31N 53°53' E 003°27'  

Dump ship's entire track history